sensor_id;sensor_type;location;lat;lon;timestamp;P1;durP1;ratioP1;P2;durP2;ratioP2
21860;SDS011;11095;48.066;8.540;2023-03-02T00:02:24;34.58;;;18.13;;
21860;SDS011;11095;48.066;8.540;2023-03-02T00:07:25;31.73;;;17.92;;
21860;SDS011;11095;48.066;8.540;2023-03-02T00:09:54;34.13;;;18.27;;
21860;SDS011;11095;48.066;8.540;2023-03-02T00:12:20;32.08;;;17.95;;
21860;SDS011;11095;48.066;8.540;2023-03-02T00:14:45;32.65;;;17.90;;
21860;SDS011;11095;48.066;8.540;2023-03-02T00:17:11;34.42;;;18.23;;
21860;SDS011;11095;48.066;8.540;2023-03-02T00:19:37;35.58;;;18.65;;
21860;SDS011;11095;48.066;8.540;2023-03-02T00:22:03;32.55;;;18.60;;
21860;SDS011;11095;48.066;8.540;2023-03-02T00:24:28;34.40;;;18.58;;
21860;SDS011;11095;48.066;8.540;2023-03-02T00:26:54;35.25;;;18.83;;
21860;SDS011;11095;48.066;8.540;2023-03-02T00:29:20;35.83;;;18.85;;
21860;SDS011;11095;48.066;8.540;2023-03-02T00:31:46;35.78;;;19.25;;
21860;SDS011;11095;48.066;8.540;2023-03-02T00:34:11;33.55;;;18.40;;
21860;SDS011;11095;48.066;8.540;2023-03-02T00:36:37;33.47;;;18.55;;
21860;SDS011;11095;48.066;8.540;2023-03-02T00:39:03;33.08;;;18.50;;
21860;SDS011;11095;48.066;8.540;2023-03-02T00:41:28;37.13;;;19.42;;
21860;SDS011;11095;48.066;8.540;2023-03-02T00:43:54;36.33;;;19.17;;
21860;SDS011;11095;48.066;8.540;2023-03-02T00:46:21;35.63;;;19.75;;
21860;SDS011;11095;48.066;8.540;2023-03-02T00:48:48;35.05;;;17.73;;
21860;SDS011;11095;48.066;8.540;2023-03-02T00:51:14;37.70;;;19.50;;
21860;SDS011;11095;48.066;8.540;2023-03-02T00:53:40;36.50;;;18.77;;
21860;SDS011;11095;48.066;8.540;2023-03-02T00:56:06;37.15;;;19.75;;
21860;SDS011;11095;48.066;8.540;2023-03-02T00:58:33;36.83;;;19.95;;
21860;SDS011;11095;48.066;8.540;2023-03-02T01:01:03;33.85;;;19.70;;
21860;SDS011;11095;48.066;8.540;2023-03-02T01:03:30;38.20;;;20.15;;
21860;SDS011;11095;48.066;8.540;2023-03-02T01:05:56;37.58;;;19.92;;
21860;SDS011;11095;48.066;8.540;2023-03-02T01:08:22;38.95;;;19.38;;
21860;SDS011;11095;48.066;8.540;2023-03-02T01:10:49;40.15;;;20.45;;
21860;SDS011;11095;48.066;8.540;2023-03-02T01:13:16;34.78;;;19.67;;
21860;SDS011;11095;48.066;8.540;2023-03-02T01:15:43;41.53;;;21.40;;
21860;SDS011;11095;48.066;8.540;2023-03-02T01:18:09;37.63;;;20.25;;
21860;SDS011;11095;48.066;8.540;2023-03-02T01:20:35;37.50;;;19.42;;
21860;SDS011;11095;48.066;8.540;2023-03-02T01:23:00;38.03;;;20.17;;
21860;SDS011;11095;48.066;8.540;2023-03-02T01:25:26;40.72;;;20.73;;
21860;SDS011;11095;48.066;8.540;2023-03-02T01:27:52;37.83;;;20.35;;
21860;SDS011;11095;48.066;8.540;2023-03-02T01:30:18;37.08;;;20.55;;
21860;SDS011;11095;48.066;8.540;2023-03-02T01:32:43;40.30;;;19.88;;
21860;SDS011;11095;48.066;8.540;2023-03-02T01:35:09;40.33;;;20.55;;
21860;SDS011;11095;48.066;8.540;2023-03-02T01:37:35;39.55;;;20.73;;
21860;SDS011;11095;48.066;8.540;2023-03-02T01:40:00;36.83;;;19.85;;
21860;SDS011;11095;48.066;8.540;2023-03-02T01:42:33;39.42;;;20.48;;
21860;SDS011;11095;48.066;8.540;2023-03-02T01:45:02;36.25;;;19.58;;
21860;SDS011;11095;48.066;8.540;2023-03-02T01:47:32;38.10;;;20.77;;
21860;SDS011;11095;48.066;8.540;2023-03-02T01:50:18;39.30;;;21.20;;
21860;SDS011;11095;48.066;8.540;2023-03-02T01:52:48;41.40;;;21.02;;
21860;SDS011;11095;48.066;8.540;2023-03-02T01:55:16;39.80;;;22.35;;
21860;SDS011;11095;48.066;8.540;2023-03-02T01:57:48;39.35;;;21.02;;
21860;SDS011;11095;48.066;8.540;2023-03-02T02:00:28;40.30;;;21.67;;
21860;SDS011;11095;48.066;8.540;2023-03-02T02:02:59;37.85;;;20.20;;
21860;SDS011;11095;48.066;8.540;2023-03-02T02:05:41;39.38;;;20.80;;
21860;SDS011;11095;48.066;8.540;2023-03-02T02:08:10;41.10;;;21.15;;
21860;SDS011;11095;48.066;8.540;2023-03-02T02:10:36;41.13;;;21.17;;
21860;SDS011;11095;48.066;8.540;2023-03-02T02:13:04;41.08;;;21.00;;
21860;SDS011;11095;48.066;8.540;2023-03-02T02:15:33;40.92;;;21.52;;
21860;SDS011;11095;48.066;8.540;2023-03-02T02:17:59;40.13;;;20.92;;
21860;SDS011;11095;48.066;8.540;2023-03-02T02:25:56;40.15;;;20.80;;
21860;SDS011;11095;48.066;8.540;2023-03-02T02:28:42;41.78;;;21.30;;
21860;SDS011;11095;48.066;8.540;2023-03-02T02:31:23;40.80;;;21.67;;
21860;SDS011;11095;48.066;8.540;2023-03-02T02:34:08;43.67;;;21.98;;
21860;SDS011;11095;48.066;8.540;2023-03-02T02:36:38;40.92;;;22.02;;
21860;SDS011;11095;48.066;8.540;2023-03-02T02:39:10;44.13;;;22.60;;
21860;SDS011;11095;48.066;8.540;2023-03-02T02:41:42;43.85;;;23.13;;
21860;SDS011;11095;48.066;8.540;2023-03-02T02:44:12;40.97;;;22.45;;
21860;SDS011;11095;48.066;8.540;2023-03-02T02:46:40;42.85;;;22.10;;
21860;SDS011;11095;48.066;8.540;2023-03-02T02:49:09;42.85;;;21.88;;
21860;SDS011;11095;48.066;8.540;2023-03-02T02:51:49;42.85;;;22.17;;
21860;SDS011;11095;48.066;8.540;2023-03-02T02:54:16;39.58;;;21.80;;
21860;SDS011;11095;48.066;8.540;2023-03-02T02:56:43;44.70;;;22.80;;
21860;SDS011;11095;48.066;8.540;2023-03-02T03:01:40;42.75;;;22.13;;
21860;SDS011;11095;48.066;8.540;2023-03-02T03:04:06;44.10;;;22.63;;
21860;SDS011;11095;48.066;8.540;2023-03-02T03:06:35;42.00;;;22.40;;
21860;SDS011;11095;48.066;8.540;2023-03-02T03:09:06;43.88;;;22.13;;
21860;SDS011;11095;48.066;8.540;2023-03-02T03:11:35;45.43;;;22.03;;
21860;SDS011;11095;48.066;8.540;2023-03-02T03:14:08;41.75;;;21.60;;
21860;SDS011;11095;48.066;8.540;2023-03-02T03:16:34;45.45;;;23.08;;
21860;SDS011;11095;48.066;8.540;2023-03-02T03:19:05;43.13;;;22.45;;
21860;SDS011;11095;48.066;8.540;2023-03-02T03:21:36;44.90;;;23.88;;
21860;SDS011;11095;48.066;8.540;2023-03-02T03:24:01;42.10;;;21.90;;
21860;SDS011;11095;48.066;8.540;2023-03-02T03:26:27;45.72;;;22.35;;
21860;SDS011;11095;48.066;8.540;2023-03-02T03:28:53;44.28;;;22.42;;
21860;SDS011;11095;48.066;8.540;2023-03-02T03:31:21;44.92;;;22.05;;
21860;SDS011;11095;48.066;8.540;2023-03-02T03:33:48;47.00;;;24.17;;
21860;SDS011;11095;48.066;8.540;2023-03-02T03:36:13;44.50;;;23.63;;
21860;SDS011;11095;48.066;8.540;2023-03-02T03:38:39;43.03;;;23.17;;
21860;SDS011;11095;48.066;8.540;2023-03-02T03:41:05;45.67;;;23.15;;
21860;SDS011;11095;48.066;8.540;2023-03-02T03:43:31;46.10;;;22.88;;
21860;SDS011;11095;48.066;8.540;2023-03-02T03:45:56;45.13;;;22.77;;
21860;SDS011;11095;48.066;8.540;2023-03-02T03:48:22;46.97;;;23.85;;
21860;SDS011;11095;48.066;8.540;2023-03-02T03:50:48;48.25;;;23.63;;
21860;SDS011;11095;48.066;8.540;2023-03-02T03:53:13;42.67;;;22.80;;
21860;SDS011;11095;48.066;8.540;2023-03-02T03:55:39;44.42;;;23.15;;
21860;SDS011;11095;48.066;8.540;2023-03-02T03:58:05;42.78;;;22.35;;
21860;SDS011;11095;48.066;8.540;2023-03-02T04:00:30;46.72;;;23.60;;
21860;SDS011;11095;48.066;8.540;2023-03-02T04:02:56;46.15;;;22.83;;
21860;SDS011;11095;48.066;8.540;2023-03-02T04:05:22;44.40;;;23.83;;
21860;SDS011;11095;48.066;8.540;2023-03-02T04:07:47;44.00;;;23.55;;
21860;SDS011;11095;48.066;8.540;2023-03-02T04:10:13;49.08;;;24.25;;
21860;SDS011;11095;48.066;8.540;2023-03-02T04:12:39;43.47;;;23.52;;
21860;SDS011;11095;48.066;8.540;2023-03-02T04:15:06;47.67;;;23.85;;
21860;SDS011;11095;48.066;8.540;2023-03-02T04:17:33;43.08;;;23.42;;
21860;SDS011;11095;48.066;8.540;2023-03-02T04:19:59;43.60;;;23.10;;
21860;SDS011;11095;48.066;8.540;2023-03-02T04:22:25;43.50;;;23.45;;
21860;SDS011;11095;48.066;8.540;2023-03-02T04:24:51;42.90;;;22.70;;
21860;SDS011;11095;48.066;8.540;2023-03-02T04:27:17;45.47;;;24.55;;
21860;SDS011;11095;48.066;8.540;2023-03-02T04:29:44;45.20;;;22.73;;
21860;SDS011;11095;48.066;8.540;2023-03-02T04:32:10;44.70;;;23.50;;
21860;SDS011;11095;48.066;8.540;2023-03-02T04:34:38;46.20;;;24.02;;
21860;SDS011;11095;48.066;8.540;2023-03-02T04:37:04;42.58;;;22.98;;
21860;SDS011;11095;48.066;8.540;2023-03-02T04:39:30;45.95;;;23.75;;
21860;SDS011;11095;48.066;8.540;2023-03-02T04:41:55;46.92;;;24.25;;
21860;SDS011;11095;48.066;8.540;2023-03-02T04:44:21;43.13;;;23.30;;
21860;SDS011;11095;48.066;8.540;2023-03-02T04:46:47;45.60;;;23.98;;
21860;SDS011;11095;48.066;8.540;2023-03-02T04:49:13;45.55;;;23.75;;
21860;SDS011;11095;48.066;8.540;2023-03-02T04:51:42;46.53;;;24.23;;
21860;SDS011;11095;48.066;8.540;2023-03-02T04:54:11;42.55;;;22.60;;
21860;SDS011;11095;48.066;8.540;2023-03-02T04:56:48;44.90;;;23.45;;
21860;SDS011;11095;48.066;8.540;2023-03-02T04:59:15;48.63;;;24.55;;
21860;SDS011;11095;48.066;8.540;2023-03-02T05:01:42;46.47;;;23.80;;
21860;SDS011;11095;48.066;8.540;2023-03-02T05:04:09;45.70;;;23.23;;
21860;SDS011;11095;48.066;8.540;2023-03-02T05:06:34;48.40;;;24.90;;
21860;SDS011;11095;48.066;8.540;2023-03-02T05:09:00;49.25;;;25.48;;
21860;SDS011;11095;48.066;8.540;2023-03-02T05:11:26;45.80;;;23.98;;
21860;SDS011;11095;48.066;8.540;2023-03-02T05:13:53;52.33;;;24.88;;
21860;SDS011;11095;48.066;8.540;2023-03-02T05:16:22;48.90;;;24.23;;
21860;SDS011;11095;48.066;8.540;2023-03-02T05:18:49;49.72;;;25.23;;
21860;SDS011;11095;48.066;8.540;2023-03-02T05:21:15;47.00;;;24.80;;
21860;SDS011;11095;48.066;8.540;2023-03-02T05:23:42;49.20;;;24.98;;
21860;SDS011;11095;48.066;8.540;2023-03-02T05:26:08;47.85;;;24.90;;
21860;SDS011;11095;48.066;8.540;2023-03-02T05:28:34;47.42;;;24.40;;
21860;SDS011;11095;48.066;8.540;2023-03-02T05:31:00;54.92;;;26.10;;
21860;SDS011;11095;48.066;8.540;2023-03-02T05:33:26;48.10;;;24.35;;
21860;SDS011;11095;48.066;8.540;2023-03-02T05:35:52;47.88;;;24.38;;
21860;SDS011;11095;48.066;8.540;2023-03-02T05:38:18;50.50;;;26.13;;
21860;SDS011;11095;48.066;8.540;2023-03-02T05:40:43;52.78;;;26.48;;
21860;SDS011;11095;48.066;8.540;2023-03-02T05:43:09;50.38;;;25.30;;
21860;SDS011;11095;48.066;8.540;2023-03-02T05:45:42;48.28;;;24.75;;
21860;SDS011;11095;48.066;8.540;2023-03-02T05:48:08;51.88;;;26.08;;
21860;SDS011;11095;48.066;8.540;2023-03-02T05:50:36;49.00;;;25.45;;
21860;SDS011;11095;48.066;8.540;2023-03-02T05:53:01;47.90;;;24.95;;
21860;SDS011;11095;48.066;8.540;2023-03-02T05:55:27;51.03;;;24.83;;
21860;SDS011;11095;48.066;8.540;2023-03-02T05:57:54;49.65;;;24.48;;
21860;SDS011;11095;48.066;8.540;2023-03-02T06:00:19;50.42;;;25.35;;
21860;SDS011;11095;48.066;8.540;2023-03-02T06:02:45;48.92;;;24.90;;
21860;SDS011;11095;48.066;8.540;2023-03-02T06:05:12;48.03;;;24.17;;
21860;SDS011;11095;48.066;8.540;2023-03-02T06:07:39;50.00;;;26.48;;
21860;SDS011;11095;48.066;8.540;2023-03-02T06:10:05;48.25;;;25.52;;
21860;SDS011;11095;48.066;8.540;2023-03-02T06:12:32;55.88;;;26.08;;
21860;SDS011;11095;48.066;8.540;2023-03-02T06:14:58;50.60;;;25.60;;
21860;SDS011;11095;48.066;8.540;2023-03-02T06:17:24;54.05;;;25.20;;
21860;SDS011;11095;48.066;8.540;2023-03-02T06:19:50;50.60;;;25.33;;
21860;SDS011;11095;48.066;8.540;2023-03-02T06:22:16;50.65;;;25.83;;
21860;SDS011;11095;48.066;8.540;2023-03-02T06:24:42;52.42;;;25.60;;
21860;SDS011;11095;48.066;8.540;2023-03-02T06:27:07;49.00;;;25.52;;
21860;SDS011;11095;48.066;8.540;2023-03-02T06:29:33;51.67;;;25.88;;
21860;SDS011;11095;48.066;8.540;2023-03-02T06:31:59;50.15;;;25.52;;
21860;SDS011;11095;48.066;8.540;2023-03-02T06:34:24;50.88;;;25.65;;
21860;SDS011;11095;48.066;8.540;2023-03-02T06:36:50;52.95;;;25.63;;
21860;SDS011;11095;48.066;8.540;2023-03-02T06:39:16;49.40;;;24.88;;
21860;SDS011;11095;48.066;8.540;2023-03-02T06:41:42;50.78;;;25.70;;
21860;SDS011;11095;48.066;8.540;2023-03-02T06:44:09;46.40;;;24.27;;
21860;SDS011;11095;48.066;8.540;2023-03-02T06:46:35;51.75;;;25.33;;
21860;SDS011;11095;48.066;8.540;2023-03-02T06:49:01;50.17;;;25.63;;
21860;SDS011;11095;48.066;8.540;2023-03-02T06:51:27;49.33;;;24.73;;
21860;SDS011;11095;48.066;8.540;2023-03-02T06:53:53;50.65;;;25.17;;
21860;SDS011;11095;48.066;8.540;2023-03-02T06:56:18;53.05;;;24.83;;
21860;SDS011;11095;48.066;8.540;2023-03-02T06:58:44;54.50;;;25.77;;
21860;SDS011;11095;48.066;8.540;2023-03-02T07:01:10;52.38;;;25.45;;
21860;SDS011;11095;48.066;8.540;2023-03-02T07:03:35;51.03;;;25.48;;
21860;SDS011;11095;48.066;8.540;2023-03-02T07:06:01;51.38;;;25.63;;
21860;SDS011;11095;48.066;8.540;2023-03-02T07:08:28;50.70;;;24.65;;
21860;SDS011;11095;48.066;8.540;2023-03-02T07:10:53;49.55;;;25.17;;
21860;SDS011;11095;48.066;8.540;2023-03-02T07:13:19;50.00;;;24.90;;
21860;SDS011;11095;48.066;8.540;2023-03-02T07:15:45;48.33;;;25.38;;
21860;SDS011;11095;48.066;8.540;2023-03-02T07:18:10;48.88;;;24.67;;
21860;SDS011;11095;48.066;8.540;2023-03-02T07:20:36;50.85;;;26.10;;
21860;SDS011;11095;48.066;8.540;2023-03-02T07:23:02;48.58;;;25.10;;
21860;SDS011;11095;48.066;8.540;2023-03-02T07:25:29;47.90;;;24.95;;
21860;SDS011;11095;48.066;8.540;2023-03-02T07:27:55;47.72;;;24.90;;
21860;SDS011;11095;48.066;8.540;2023-03-02T07:30:21;47.05;;;24.70;;
21860;SDS011;11095;48.066;8.540;2023-03-02T07:32:46;52.90;;;25.67;;
21860;SDS011;11095;48.066;8.540;2023-03-02T07:35:12;45.60;;;25.23;;
21860;SDS011;11095;48.066;8.540;2023-03-02T07:37:38;48.60;;;24.30;;
21860;SDS011;11095;48.066;8.540;2023-03-02T07:40:04;48.20;;;24.90;;
21860;SDS011;11095;48.066;8.540;2023-03-02T07:42:31;47.38;;;24.65;;
21860;SDS011;11095;48.066;8.540;2023-03-02T07:44:57;45.78;;;24.48;;
21860;SDS011;11095;48.066;8.540;2023-03-02T07:47:23;45.03;;;23.45;;
21860;SDS011;11095;48.066;8.540;2023-03-02T07:49:49;48.28;;;24.83;;
21860;SDS011;11095;48.066;8.540;2023-03-02T07:52:15;48.50;;;24.05;;
21860;SDS011;11095;48.066;8.540;2023-03-02T07:54:40;51.60;;;25.20;;
21860;SDS011;11095;48.066;8.540;2023-03-02T07:57:06;47.90;;;24.13;;
21860;SDS011;11095;48.066;8.540;2023-03-02T07:59:32;45.08;;;24.60;;
21860;SDS011;11095;48.066;8.540;2023-03-02T08:01:57;46.80;;;23.90;;
21860;SDS011;11095;48.066;8.540;2023-03-02T08:04:23;46.00;;;23.75;;
21860;SDS011;11095;48.066;8.540;2023-03-02T08:06:49;42.55;;;22.55;;
21860;SDS011;11095;48.066;8.540;2023-03-02T08:09:15;44.42;;;23.38;;
21860;SDS011;11095;48.066;8.540;2023-03-02T08:11:41;46.33;;;24.50;;
21860;SDS011;11095;48.066;8.540;2023-03-02T08:14:06;44.55;;;24.25;;
21860;SDS011;11095;48.066;8.540;2023-03-02T08:16:32;42.88;;;23.60;;
21860;SDS011;11095;48.066;8.540;2023-03-02T08:18:58;42.38;;;23.73;;
21860;SDS011;11095;48.066;8.540;2023-03-02T08:21:24;42.65;;;22.25;;
21860;SDS011;11095;48.066;8.540;2023-03-02T08:23:51;44.33;;;23.52;;
21860;SDS011;11095;48.066;8.540;2023-03-02T08:26:18;43.83;;;23.77;;
21860;SDS011;11095;48.066;8.540;2023-03-02T08:28:44;46.53;;;24.08;;
21860;SDS011;11095;48.066;8.540;2023-03-02T08:31:11;48.50;;;24.52;;
21860;SDS011;11095;48.066;8.540;2023-03-02T08:33:36;46.67;;;24.52;;
21860;SDS011;11095;48.066;8.540;2023-03-02T08:36:07;47.00;;;24.98;;
21860;SDS011;11095;48.066;8.540;2023-03-02T08:38:36;46.08;;;23.80;;
21860;SDS011;11095;48.066;8.540;2023-03-02T08:41:03;46.40;;;24.80;;
21860;SDS011;11095;48.066;8.540;2023-03-02T08:43:30;45.45;;;24.27;;
21860;SDS011;11095;48.066;8.540;2023-03-02T08:45:56;46.03;;;24.45;;
21860;SDS011;11095;48.066;8.540;2023-03-02T08:48:22;43.58;;;23.30;;
21860;SDS011;11095;48.066;8.540;2023-03-02T08:53:20;46.28;;;23.77;;
21860;SDS011;11095;48.066;8.540;2023-03-02T08:55:46;46.97;;;24.13;;
21860;SDS011;11095;48.066;8.540;2023-03-02T08:58:12;47.83;;;24.27;;
21860;SDS011;11095;48.066;8.540;2023-03-02T09:00:37;44.03;;;22.50;;
21860;SDS011;11095;48.066;8.540;2023-03-02T09:03:03;46.55;;;23.52;;
21860;SDS011;11095;48.066;8.540;2023-03-02T09:05:29;49.35;;;23.67;;
21860;SDS011;11095;48.066;8.540;2023-03-02T09:07:54;47.40;;;24.02;;
21860;SDS011;11095;48.066;8.540;2023-03-02T09:10:20;48.92;;;24.45;;
21860;SDS011;11095;48.066;8.540;2023-03-02T09:12:45;46.45;;;23.85;;
21860;SDS011;11095;48.066;8.540;2023-03-02T09:15:11;47.05;;;24.42;;
21860;SDS011;11095;48.066;8.540;2023-03-02T09:17:37;54.22;;;24.27;;
21860;SDS011;11095;48.066;8.540;2023-03-02T09:20:02;49.28;;;24.95;;
21860;SDS011;11095;48.066;8.540;2023-03-02T09:22:28;52.65;;;27.42;;
21860;SDS011;11095;48.066;8.540;2023-03-02T09:24:55;49.03;;;24.20;;
21860;SDS011;11095;48.066;8.540;2023-03-02T09:27:20;50.42;;;25.33;;
21860;SDS011;11095;48.066;8.540;2023-03-02T09:29:46;40.63;;;22.95;;
21860;SDS011;11095;48.066;8.540;2023-03-02T09:32:12;47.65;;;24.50;;
21860;SDS011;11095;48.066;8.540;2023-03-02T09:34:39;42.25;;;22.48;;
21860;SDS011;11095;48.066;8.540;2023-03-02T09:37:05;45.33;;;23.25;;
21860;SDS011;11095;48.066;8.540;2023-03-02T09:39:31;44.25;;;23.45;;
21860;SDS011;11095;48.066;8.540;2023-03-02T09:44:59;46.53;;;23.30;;
21860;SDS011;11095;48.066;8.540;2023-03-02T09:55:30;44.30;;;22.55;;
21860;SDS011;11095;48.066;8.540;2023-03-02T09:57:59;43.65;;;23.00;;
21860;SDS011;11095;48.066;8.540;2023-03-02T10:00:28;45.53;;;22.45;;
21860;SDS011;11095;48.066;8.540;2023-03-02T10:02:57;42.53;;;21.55;;
21860;SDS011;11095;48.066;8.540;2023-03-02T10:05:38;42.30;;;22.75;;
21860;SDS011;11095;48.066;8.540;2023-03-02T10:08:25;41.72;;;22.45;;
21860;SDS011;11095;48.066;8.540;2023-03-02T10:11:17;45.83;;;23.90;;
21860;SDS011;11095;48.066;8.540;2023-03-02T10:13:59;40.78;;;22.20;;
21860;SDS011;11095;48.066;8.540;2023-03-02T10:16:52;42.58;;;23.05;;
21860;SDS011;11095;48.066;8.540;2023-03-02T10:19:52;39.45;;;22.08;;
21860;SDS011;11095;48.066;8.540;2023-03-02T10:22:37;41.45;;;23.10;;
21860;SDS011;11095;48.066;8.540;2023-03-02T10:25:21;44.00;;;23.40;;
21860;SDS011;11095;48.066;8.540;2023-03-02T10:28:00;45.13;;;23.98;;
21860;SDS011;11095;48.066;8.540;2023-03-02T10:30:41;43.47;;;23.55;;
21860;SDS011;11095;48.066;8.540;2023-03-02T10:33:11;45.90;;;24.63;;
21860;SDS011;11095;48.066;8.540;2023-03-02T10:35:41;45.45;;;24.55;;
21860;SDS011;11095;48.066;8.540;2023-03-02T10:38:12;46.42;;;24.02;;
21860;SDS011;11095;48.066;8.540;2023-03-02T10:40:41;45.20;;;23.85;;
21860;SDS011;11095;48.066;8.540;2023-03-02T10:43:13;43.33;;;23.17;;
21860;SDS011;11095;48.066;8.540;2023-03-02T10:45:41;47.17;;;24.55;;
21860;SDS011;11095;48.066;8.540;2023-03-02T10:48:08;46.60;;;24.67;;
21860;SDS011;11095;48.066;8.540;2023-03-02T10:50:36;46.83;;;24.80;;
21860;SDS011;11095;48.066;8.540;2023-03-02T10:53:05;45.10;;;24.05;;
21860;SDS011;11095;48.066;8.540;2023-03-02T10:55:32;43.83;;;23.67;;
21860;SDS011;11095;48.066;8.540;2023-03-02T10:58:32;45.35;;;24.02;;
21860;SDS011;11095;48.066;8.540;2023-03-02T11:00:59;41.95;;;22.95;;
21860;SDS011;11095;48.066;8.540;2023-03-02T11:03:27;47.50;;;24.65;;
21860;SDS011;11095;48.066;8.540;2023-03-02T11:05:57;44.67;;;24.52;;
21860;SDS011;11095;48.066;8.540;2023-03-02T11:08:34;43.05;;;23.00;;
21860;SDS011;11095;48.066;8.540;2023-03-02T11:11:01;41.65;;;23.30;;
21860;SDS011;11095;48.066;8.540;2023-03-02T11:13:32;40.38;;;21.88;;
21860;SDS011;11095;48.066;8.540;2023-03-02T11:16:20;43.25;;;23.50;;
21860;SDS011;11095;48.066;8.540;2023-03-02T11:21:45;39.05;;;22.30;;
21860;SDS011;11095;48.066;8.540;2023-03-02T11:24:24;46.42;;;24.70;;
21860;SDS011;11095;48.066;8.540;2023-03-02T11:29:36;44.35;;;23.90;;
21860;SDS011;11095;48.066;8.540;2023-03-02T11:35:14;44.95;;;25.05;;
21860;SDS011;11095;48.066;8.540;2023-03-02T11:37:45;44.58;;;23.75;;
21860;SDS011;11095;48.066;8.540;2023-03-02T11:40:19;40.83;;;23.10;;
21860;SDS011;11095;48.066;8.540;2023-03-02T11:42:50;42.53;;;23.75;;
21860;SDS011;11095;48.066;8.540;2023-03-02T11:45:21;41.45;;;23.05;;
21860;SDS011;11095;48.066;8.540;2023-03-02T11:50:33;46.80;;;25.17;;
21860;SDS011;11095;48.066;8.540;2023-03-02T11:53:06;44.05;;;23.83;;
21860;SDS011;11095;48.066;8.540;2023-03-02T11:55:39;45.28;;;23.77;;
21860;SDS011;11095;48.066;8.540;2023-03-02T11:58:10;48.22;;;25.35;;
21860;SDS011;11095;48.066;8.540;2023-03-02T12:00:41;43.53;;;24.30;;
21860;SDS011;11095;48.066;8.540;2023-03-02T12:05:40;45.08;;;24.08;;
21860;SDS011;11095;48.066;8.540;2023-03-02T12:10:59;42.05;;;23.38;;
21860;SDS011;11095;48.066;8.540;2023-03-02T12:13:36;40.83;;;22.38;;
21860;SDS011;11095;48.066;8.540;2023-03-02T12:16:15;47.17;;;25.52;;
21860;SDS011;11095;48.066;8.540;2023-03-02T12:18:45;44.55;;;24.58;;
21860;SDS011;11095;48.066;8.540;2023-03-02T12:28:54;44.72;;;24.80;;
21860;SDS011;11095;48.066;8.540;2023-03-02T12:31:23;48.88;;;25.98;;
21860;SDS011;11095;48.066;8.540;2023-03-02T12:33:50;46.63;;;24.38;;
21860;SDS011;11095;48.066;8.540;2023-03-02T12:36:28;43.13;;;23.25;;
21860;SDS011;11095;48.066;8.540;2023-03-02T12:41:57;44.70;;;23.95;;
21860;SDS011;11095;48.066;8.540;2023-03-02T12:44:42;41.65;;;21.75;;
21860;SDS011;11095;48.066;8.540;2023-03-02T12:47:23;42.83;;;23.52;;
21860;SDS011;11095;48.066;8.540;2023-03-02T12:49:54;43.80;;;23.15;;
21860;SDS011;11095;48.066;8.540;2023-03-02T12:52:29;38.72;;;21.77;;
21860;SDS011;11095;48.066;8.540;2023-03-02T12:57:28;45.03;;;24.73;;
21860;SDS011;11095;48.066;8.540;2023-03-02T12:59:55;42.55;;;23.13;;
21860;SDS011;11095;48.066;8.540;2023-03-02T13:02:28;43.75;;;23.92;;
21860;SDS011;11095;48.066;8.540;2023-03-02T13:04:56;44.97;;;24.30;;
21860;SDS011;11095;48.066;8.540;2023-03-02T13:07:41;46.53;;;25.20;;
21860;SDS011;11095;48.066;8.540;2023-03-02T13:11:11;45.80;;;24.65;;
21860;SDS011;11095;48.066;8.540;2023-03-02T13:16:04;48.77;;;25.07;;
21860;SDS011;11095;48.066;8.540;2023-03-02T13:18:42;50.17;;;25.83;;
21860;SDS011;11095;48.066;8.540;2023-03-02T13:21:09;54.63;;;26.48;;
21860;SDS011;11095;48.066;8.540;2023-03-02T13:23:43;47.97;;;24.85;;
21860;SDS011;11095;48.066;8.540;2023-03-02T13:26:27;51.60;;;25.88;;
21860;SDS011;11095;48.066;8.540;2023-03-02T13:29:00;49.20;;;24.88;;
21860;SDS011;11095;48.066;8.540;2023-03-02T13:31:27;49.70;;;25.50;;
21860;SDS011;11095;48.066;8.540;2023-03-02T13:33:54;45.63;;;23.67;;
21860;SDS011;11095;48.066;8.540;2023-03-02T13:36:33;49.40;;;23.95;;
21860;SDS011;11095;48.066;8.540;2023-03-02T13:39:02;53.42;;;26.00;;
21860;SDS011;11095;48.066;8.540;2023-03-02T13:41:31;49.22;;;25.00;;
21860;SDS011;11095;48.066;8.540;2023-03-02T13:43:58;53.13;;;25.77;;
21860;SDS011;11095;48.066;8.540;2023-03-02T13:46:45;50.38;;;25.17;;
21860;SDS011;11095;48.066;8.540;2023-03-02T13:49:11;50.42;;;25.85;;
21860;SDS011;11095;48.066;8.540;2023-03-02T13:51:38;48.45;;;25.20;;
21860;SDS011;11095;48.066;8.540;2023-03-02T13:54:13;48.78;;;25.02;;
21860;SDS011;11095;48.066;8.540;2023-03-02T13:56:46;51.55;;;25.20;;
21860;SDS011;11095;48.066;8.540;2023-03-02T13:59:14;46.13;;;24.55;;
21860;SDS011;11095;48.066;8.540;2023-03-02T14:01:41;45.60;;;23.73;;
21860;SDS011;11095;48.066;8.540;2023-03-02T14:04:10;49.50;;;25.40;;
21860;SDS011;11095;48.066;8.540;2023-03-02T14:06:37;49.22;;;25.15;;
21860;SDS011;11095;48.066;8.540;2023-03-02T14:09:03;52.45;;;26.63;;
21860;SDS011;11095;48.066;8.540;2023-03-02T14:11:29;49.75;;;25.73;;
21860;SDS011;11095;48.066;8.540;2023-03-02T14:13:59;52.17;;;25.92;;
21860;SDS011;11095;48.066;8.540;2023-03-02T14:16:27;52.47;;;24.63;;
21860;SDS011;11095;48.066;8.540;2023-03-02T14:18:53;52.95;;;25.55;;
21860;SDS011;11095;48.066;8.540;2023-03-02T14:21:21;51.65;;;25.50;;
21860;SDS011;11095;48.066;8.540;2023-03-02T14:23:48;49.50;;;24.48;;
21860;SDS011;11095;48.066;8.540;2023-03-02T14:29:02;49.22;;;24.45;;
21860;SDS011;11095;48.066;8.540;2023-03-02T14:31:31;52.97;;;26.20;;
21860;SDS011;11095;48.066;8.540;2023-03-02T14:33:57;49.42;;;24.38;;
21860;SDS011;11095;48.066;8.540;2023-03-02T14:36:28;53.22;;;25.88;;
21860;SDS011;11095;48.066;8.540;2023-03-02T14:38:56;52.42;;;25.58;;
21860;SDS011;11095;48.066;8.540;2023-03-02T14:41:25;53.50;;;25.85;;
21860;SDS011;11095;48.066;8.540;2023-03-02T14:43:52;53.00;;;26.17;;
21860;SDS011;11095;48.066;8.540;2023-03-02T14:46:17;51.92;;;25.23;;
21860;SDS011;11095;48.066;8.540;2023-03-02T14:48:43;48.90;;;24.45;;
21860;SDS011;11095;48.066;8.540;2023-03-02T14:51:14;49.38;;;23.90;;
21860;SDS011;11095;48.066;8.540;2023-03-02T14:53:50;52.65;;;25.17;;
21860;SDS011;11095;48.066;8.540;2023-03-02T14:56:18;51.97;;;25.33;;
21860;SDS011;11095;48.066;8.540;2023-03-02T14:58:46;51.83;;;25.08;;
21860;SDS011;11095;48.066;8.540;2023-03-02T15:01:14;52.90;;;25.30;;
21860;SDS011;11095;48.066;8.540;2023-03-02T15:03:40;45.10;;;22.60;;
21860;SDS011;11095;48.066;8.540;2023-03-02T15:06:10;50.83;;;25.40;;
21860;SDS011;11095;48.066;8.540;2023-03-02T15:08:57;56.33;;;23.70;;
21860;SDS011;11095;48.066;8.540;2023-03-02T15:11:24;49.60;;;23.75;;
21860;SDS011;11095;48.066;8.540;2023-03-02T15:13:51;52.22;;;24.45;;
21860;SDS011;11095;48.066;8.540;2023-03-02T15:16:17;50.15;;;23.50;;
21860;SDS011;11095;48.066;8.540;2023-03-02T15:18:43;44.47;;;22.17;;
21860;SDS011;11095;48.066;8.540;2023-03-02T15:21:16;48.00;;;23.65;;
21860;SDS011;11095;48.066;8.540;2023-03-02T15:23:44;49.25;;;23.10;;
21860;SDS011;11095;48.066;8.540;2023-03-02T15:26:10;50.03;;;23.58;;
21860;SDS011;11095;48.066;8.540;2023-03-02T15:28:37;44.17;;;21.70;;
21860;SDS011;11095;48.066;8.540;2023-03-02T15:31:06;45.05;;;22.05;;